Time;durP1;ratioP1;P1;durP2;ratioP2;P2;SDS_P1;SDS_P2;PMS_P1;PMS_P2;Temp;Humidity;BMP_temperature;BMP_pressure;BME280_temperature;BME280_humidity;BME280_pressure;Samples;Min_cycle;Max_cycle;Signal;HPM_P1;HPM_P2
2021/09/16 00:00:19;;;;;;;396.97;373.80;;;18.10;99.90;;;;;;5073143;28;20511;-84
2021/09/16 00:02:55;;;;;;;359.83;338.37;;;18.00;99.90;;;;;;5070422;28;20940;-84
2021/09/16 00:12:04;;;;;;;293.53;274.90;;;17.90;99.90;;;;;;4974091;28;20414;-85
2021/09/16 00:15:27;;;;;;;237.90;222.00;;;17.80;99.90;;;;;;4998334;28;20417;-84
2021/09/16 00:17:59;;;;;;;217.77;202.57;;;17.90;99.90;;;;;;4983100;28;20440;-85
2021/09/16 00:20:48;;;;;;;200.70;186.53;;;17.80;99.90;;;;;;4998121;28;20413;-84
2021/09/16 00:23:15;;;;;;;186.43;172.77;;;17.90;99.90;;;;;;4997993;28;20400;-85
2021/09/16 00:25:47;;;;;;;174.90;161.80;;;17.90;99.90;;;;;;5019379;28;20758;-85
2021/09/16 00:28:24;;;;;;;225.50;210.00;;;17.90;99.90;;;;;;5074851;28;20418;-84
2021/09/16 00:31:05;;;;;;;191.23;177.50;;;18.00;99.90;;;;;;5075093;28;20409;-85
2021/09/16 00:33:43;;;;;;;178.57;165.30;;;17.80;99.90;;;;;;5073394;28;20874;-84
2021/09/16 00:36:20;;;;;;;185.20;171.43;;;17.90;99.90;;;;;;5076168;28;20386;-84
2021/09/16 00:39:07;;;;;;;195.63;181.87;;;17.90;99.90;;;;;;5076125;28;20782;-85
2021/09/16 00:42:12;;;;;;;201.93;187.17;;;18.00;99.90;;;;;;5076837;28;20383;-85
2021/09/16 00:45:07;;;;;;;209.63;195.00;;;18.10;99.90;;;;;;5056522;28;20402;-84
2021/09/16 00:47:52;;;;;;;255.57;239.27;;;18.00;99.90;;;;;;5074349;28;20472;-85
2021/09/16 00:50:27;;;;;;;202.73;188.33;;;18.00;99.90;;;;;;5075584;28;20402;-84
2021/09/16 00:52:53;;;;;;;223.53;208.83;;;17.90;99.90;;;;;;5076152;28;20405;-84
2021/09/16 00:55:28;;;;;;;185.80;172.07;;;17.80;99.90;;;;;;5074609;28;21081;-84
2021/09/16 00:58:03;;;;;;;204.73;190.40;;;17.80;99.90;;;;;;5075735;28;20429;-84
2021/09/16 01:00:39;;;;;;;202.60;188.00;;;17.90;99.90;;;;;;5053591;28;20438;-84
2021/09/16 01:03:04;;;;;;;194.07;180.17;;;17.80;99.90;;;;;;5070796;28;20393;-84
2021/09/16 01:05:51;;;;;;;194.53;180.57;;;17.70;99.90;;;;;;5074266;28;20463;-84
2021/09/16 01:08:35;;;;;;;194.17;179.90;;;17.80;99.90;;;;;;5074453;28;20233;-84
2021/09/16 01:11:16;;;;;;;222.30;207.60;;;17.80;99.90;;;;;;5073558;28;20407;-84
2021/09/16 01:13:55;;;;;;;209.37;194.47;;;17.80;99.90;;;;;;5074378;28;20889;-84
2021/09/16 01:16:37;;;;;;;234.47;219.10;;;17.90;99.90;;;;;;5074828;28;20426;-84
2021/09/16 01:19:30;;;;;;;240.90;225.30;;;17.90;99.90;;;;;;5075499;28;20445;-84
2021/09/16 01:22:01;;;;;;;217.57;202.77;;;17.80;99.90;;;;;;5073824;28;20413;-85
2021/09/16 01:24:27;;;;;;;228.07;212.87;;;17.80;99.90;;;;;;5073353;28;20505;-85
2021/09/16 01:26:53;;;;;;;246.40;230.53;;;17.80;99.90;;;;;;5074121;28;20538;-84
2021/09/16 01:29:19;;;;;;;270.60;254.03;;;17.90;99.90;;;;;;5075214;28;20563;-85
2021/09/16 01:31:54;;;;;;;276.23;259.37;;;18.00;99.90;;;;;;5074568;28;20303;-84
2021/09/16 01:34:24;;;;;;;240.73;225.27;;;18.00;99.90;;;;;;5075174;28;20382;-84
2021/09/16 01:36:59;;;;;;;250.33;234.67;;;17.90;99.90;;;;;;5074752;28;20516;-84
2021/09/16 01:39:37;;;;;;;232.97;217.20;;;18.00;99.90;;;;;;5073551;28;20431;-84
2021/09/16 01:42:04;;;;;;;257.73;241.40;;;18.00;99.90;;;;;;5073465;28;20774;-84
2021/09/16 01:44:41;;;;;;;260.10;243.87;;;18.00;99.90;;;;;;5074630;28;20395;-84
2021/09/16 01:47:12;;;;;;;259.20;243.17;;;17.90;99.90;;;;;;5074526;28;20469;-84
2021/09/16 01:49:48;;;;;;;303.33;285.57;;;17.90;99.90;;;;;;5074531;28;20758;-85
2021/09/16 01:52:16;;;;;;;264.37;248.10;;;17.90;99.90;;;;;;5140114;23;20433;-84
2021/09/16 01:54:42;;;;;;;252.07;236.17;;;17.90;99.90;;;;;;5074943;28;20406;-84
2021/09/16 01:57:08;;;;;;;296.70;278.50;;;17.90;99.90;;;;;;5076257;28;20423;-84
2021/09/16 01:59:34;;;;;;;301.10;283.50;;;17.80;99.90;;;;;;5076193;28;20461;-84
2021/09/16 02:01:59;;;;;;;308.60;290.63;;;17.70;99.90;;;;;;5076290;28;20168;-84
2021/09/16 02:04:27;;;;;;;320.30;301.77;;;17.70;99.90;;;;;;5076344;28;20168;-84
2021/09/16 02:06:52;;;;;;;290.47;273.30;;;17.70;99.90;;;;;;5075071;28;20479;-84
2021/09/16 02:09:18;;;;;;;298.50;280.83;;;17.60;99.90;;;;;;5076104;28;20402;-84
2021/09/16 02:11:44;;;;;;;353.80;333.70;;;17.60;99.90;;;;;;5074811;28;20174;-84
2021/09/16 02:14:10;;;;;;;349.47;329.77;;;17.60;99.90;;;;;;5076187;28;20164;-84
2021/09/16 02:16:35;;;;;;;343.13;324.13;;;17.60;99.90;;;;;;5076114;28;20195;-84
2021/09/16 02:19:01;;;;;;;344.40;325.23;;;17.60;99.90;;;;;;5076050;28;20187;-84
2021/09/16 02:21:27;;;;;;;366.23;346.20;;;17.60;99.90;;;;;;5076130;28;20167;-84
2021/09/16 02:23:52;;;;;;;344.27;325.03;;;17.60;99.90;;;;;;5075910;28;20623;-84
2021/09/16 02:26:18;;;;;;;326.10;307.73;;;17.60;99.90;;;;;;5075947;28;20227;-84
2021/09/16 02:28:44;;;;;;;355.67;335.77;;;17.60;99.90;;;;;;5076461;28;20174;-84
2021/09/16 02:31:09;;;;;;;307.37;289.43;;;17.50;99.90;;;;;;5074307;28;20308;-84
2021/09/16 02:33:35;;;;;;;335.60;316.33;;;17.50;99.90;;;;;;5074535;28;20274;-84
2021/09/16 02:36:01;;;;;;;280.10;262.90;;;17.60;99.90;;;;;;5075412;28;20258;-84
2021/09/16 02:38:27;;;;;;;319.17;300.43;;;17.50;99.90;;;;;;5075411;28;20206;-84
2021/09/16 02:40:53;;;;;;;316.20;297.60;;;17.50;99.90;;;;;;5075731;28;20493;-84
2021/09/16 02:43:19;;;;;;;255.77;239.17;;;17.40;99.90;;;;;;5074192;28;20912;-84
2021/09/16 02:45:44;;;;;;;310.70;292.53;;;17.50;99.90;;;;;;5075712;28;20168;-84
2021/09/16 02:48:11;;;;;;;320.00;301.67;;;17.40;99.90;;;;;;5075406;28;20921;-84
2021/09/16 02:50:37;;;;;;;265.23;248.73;;;17.40;99.90;;;;;;5075433;28;20163;-84
2021/09/16 02:53:03;;;;;;;281.93;265.03;;;17.30;99.90;;;;;;5073960;28;20483;-84
2021/09/16 02:55:29;;;;;;;285.73;268.30;;;17.40;99.90;;;;;;5075645;28;20172;-86
2021/09/16 02:57:55;;;;;;;294.53;276.83;;;17.30;99.90;;;;;;5074863;28;20426;-83
2021/09/16 03:00:20;;;;;;;303.13;285.10;;;17.30;99.90;;;;;;5074478;28;20460;-83
2021/09/16 03:02:46;;;;;;;304.73;286.97;;;17.30;99.90;;;;;;5075173;28;20504;-83
2021/09/16 03:05:12;;;;;;;303.73;286.07;;;17.30;99.90;;;;;;5074032;28;20197;-84
2021/09/16 03:07:37;;;;;;;309.20;291.13;;;17.30;99.90;;;;;;5074864;28;20536;-83
2021/09/16 03:10:05;;;;;;;308.40;290.67;;;17.30;99.90;;;;;;5074101;28;20696;-84
2021/09/16 03:12:31;;;;;;;341.83;322.80;;;17.20;99.90;;;;;;5075432;28;20167;-84
2021/09/16 03:14:56;;;;;;;310.67;292.87;;;17.20;99.90;;;;;;5075154;28;20417;-84
2021/09/16 03:17:22;;;;;;;344.83;325.63;;;17.20;99.90;;;;;;5074989;28;20188;-84
2021/09/16 03:19:47;;;;;;;310.37;292.40;;;17.10;99.90;;;;;;5074901;28;20191;-84
2021/09/16 03:22:13;;;;;;;341.53;321.93;;;17.00;99.90;;;;;;5074107;28;20164;-84
2021/09/16 03:24:39;;;;;;;333.33;314.47;;;17.00;99.90;;;;;;5074991;28;20163;-84
2021/09/16 03:27:05;;;;;;;366.67;346.67;;;17.00;99.90;;;;;;5074287;28;20647;-84
2021/09/16 03:29:31;;;;;;;327.10;308.47;;;17.00;99.90;;;;;;5075325;28;20405;-84
2021/09/16 03:31:56;;;;;;;335.10;316.23;;;17.10;99.90;;;;;;5075011;28;20172;-84
2021/09/16 03:34:22;;;;;;;287.87;270.77;;;17.10;99.90;;;;;;5073714;28;20268;-84
2021/09/16 03:36:48;;;;;;;279.57;262.80;;;16.90;99.90;;;;;;5075013;28;20599;-83
2021/09/16 03:39:13;;;;;;;283.70;266.97;;;17.00;99.90;;;;;;5073393;28;20238;-84
2021/09/16 03:41:39;;;;;;;350.53;331.03;;;16.90;99.90;;;;;;5074041;28;20534;-83
2021/09/16 03:44:05;;;;;;;315.30;297.33;;;16.90;99.90;;;;;;5074948;28;20190;-83
2021/09/16 03:46:33;;;;;;;244.47;228.63;;;16.80;99.90;;;;;;5076640;28;20195;-84
2021/09/16 03:48:59;;;;;;;272.97;256.47;;;16.80;99.90;;;;;;5079472;28;20647;-84
2021/09/16 03:51:25;;;;;;;310.50;292.50;;;16.70;99.90;;;;;;5077461;28;20412;-83
2021/09/16 03:53:50;;;;;;;250.13;233.90;;;16.70;99.90;;;;;;5078415;28;20190;-83
2021/09/16 03:56:16;;;;;;;246.10;230.37;;;16.70;99.90;;;;;;5078653;28;20210;-83
2021/09/16 03:58:41;;;;;;;195.57;180.87;;;16.60;99.90;;;;;;5078484;28;20214;-83
2021/09/16 04:01:08;;;;;;;233.00;216.77;;;16.60;99.90;;;;;;5078556;28;20508;-83
2021/09/16 04:03:34;;;;;;;210.97;196.17;;;16.60;99.90;;;;;;5076933;28;20180;-83
2021/09/16 04:06:03;;;;;;;233.50;216.80;;;16.60;99.90;;;;;;5078218;28;20919;-83
2021/09/16 04:08:28;;;;;;;217.33;202.00;;;16.60;99.90;;;;;;5078712;28;20559;-83
2021/09/16 04:10:54;;;;;;;198.90;183.97;;;16.50;99.90;;;;;;5078620;28;20412;-83
2021/09/16 04:13:20;;;;;;;205.57;189.93;;;16.50;99.90;;;;;;5078521;28;20217;-84
2021/09/16 04:15:48;;;;;;;224.93;208.63;;;16.60;99.90;;;;;;5078381;28;20170;-85
2021/09/16 04:18:14;;;;;;;221.00;205.03;;;16.60;99.90;;;;;;5078704;28;20200;-84
2021/09/16 04:20:39;;;;;;;236.03;219.03;;;16.60;99.90;;;;;;5078454;28;20900;-84
2021/09/16 04:23:05;;;;;;;248.10;230.63;;;16.60;99.90;;;;;;5078584;28;20195;-84
2021/09/16 04:25:31;;;;;;;233.83;216.63;;;16.50;99.90;;;;;;5078773;28;20161;-85
2021/09/16 04:27:57;;;;;;;273.03;254.70;;;16.50;99.90;;;;;;5076937;28;20554;-84
2021/09/16 04:30:22;;;;;;;248.67;230.33;;;16.60;99.90;;;;;;5078261;28;20488;-85
2021/09/16 04:32:48;;;;;;;266.37;247.20;;;16.50;99.90;;;;;;5077959;28;20250;-84
2021/09/16 04:35:14;;;;;;;249.93;232.53;;;16.60;99.90;;;;;;5078516;28;20166;-84
2021/09/16 04:37:39;;;;;;;276.90;258.67;;;16.70;99.90;;;;;;5077905;28;20190;-85
2021/09/16 04:40:06;;;;;;;271.33;252.93;;;16.60;99.90;;;;;;5076592;28;20194;-84
2021/09/16 04:42:32;;;;;;;287.10;268.40;;;16.60;99.90;;;;;;5077769;28;20167;-84
2021/09/16 04:44:57;;;;;;;258.40;241.00;;;16.50;99.90;;;;;;5076549;28;20472;-85
2021/09/16 04:47:23;;;;;;;278.20;259.43;;;16.50;99.90;;;;;;5076452;28;20190;-85
2021/09/16 04:49:49;;;;;;;311.67;291.23;;;16.40;99.90;;;;;;5077586;28;20538;-85
2021/09/16 04:52:15;;;;;;;296.63;277.07;;;16.50;99.90;;;;;;5078169;28;20171;-85
2021/09/16 04:54:41;;;;;;;314.80;293.80;;;16.40;99.90;;;;;;5077624;28;20165;-85
2021/09/16 04:57:07;;;;;;;293.47;273.57;;;16.50;99.90;;;;;;5076551;28;20187;-85
2021/09/16 04:59:33;;;;;;;251.17;233.40;;;16.50;99.90;;;;;;5077272;28;20860;-84
2021/09/16 05:01:59;;;;;;;292.53;272.63;;;16.50;99.90;;;;;;5077679;28;20443;-85
2021/09/16 05:04:25;;;;;;;253.67;236.27;;;16.50;99.90;;;;;;5076041;28;20872;-85
2021/09/16 05:06:50;;;;;;;252.47;235.13;;;16.50;99.90;;;;;;5076125;28;20185;-85
2021/09/16 05:09:16;;;;;;;294.80;274.97;;;16.40;99.90;;;;;;5075905;28;20644;-85
2021/09/16 05:11:42;;;;;;;300.53;281.47;;;16.40;99.90;;;;;;5077946;28;20248;-85
2021/09/16 05:14:12;;;;;;;259.83;241.37;;;16.40;99.90;;;;;;5077542;28;20529;-85
2021/09/16 05:16:38;;;;;;;245.07;227.30;;;16.30;99.90;;;;;;5077467;28;20948;-84
2021/09/16 05:19:04;;;;;;;299.23;279.90;;;16.30;99.90;;;;;;5079501;28;20513;-85
2021/09/16 05:21:29;;;;;;;295.10;275.47;;;16.20;99.90;;;;;;5077694;28;20404;-83
2021/09/16 05:23:56;;;;;;;319.70;299.00;;;16.20;99.90;;;;;;5077066;28;20489;-83
2021/09/16 05:26:22;;;;;;;317.57;297.07;;;16.20;99.90;;;;;;5075929;28;20199;-84
2021/09/16 05:28:47;;;;;;;288.83;270.27;;;16.10;99.90;;;;;;5077319;28;20396;-84
2021/09/16 05:31:13;;;;;;;355.73;332.67;;;16.10;99.90;;;;;;5077329;28;20166;-84
2021/09/16 05:33:39;;;;;;;320.23;299.23;;;16.10;99.90;;;;;;5077079;28;20177;-84
2021/09/16 05:36:06;;;;;;;316.33;296.67;;;16.20;99.90;;;;;;5075324;28;20198;-84
2021/09/16 05:38:40;;;;;;;296.23;276.40;;;16.10;99.90;;;;;;5077012;28;20677;-84
2021/09/16 05:41:06;;;;;;;262.43;244.13;;;16.10;99.90;;;;;;5077026;28;20519;-84
2021/09/16 05:43:31;;;;;;;252.00;235.17;;;16.10;99.90;;;;;;5076762;28;20838;-84
2021/09/16 05:45:57;;;;;;;304.07;284.37;;;16.20;99.90;;;;;;5077027;28;20172;-83
2021/09/16 05:48:23;;;;;;;301.43;282.00;;;16.20;99.90;;;;;;5078185;28;20207;-83
2021/09/16 05:50:49;;;;;;;340.00;318.53;;;16.20;99.90;;;;;;5078029;28;20218;-83
2021/09/16 05:53:15;;;;;;;316.43;296.33;;;16.20;99.90;;;;;;5077807;28;20417;-83
2021/09/16 05:55:41;;;;;;;287.60;268.47;;;16.20;99.90;;;;;;5078020;28;20162;-83
2021/09/16 05:58:07;;;;;;;332.70;311.40;;;16.20;99.90;;;;;;5078149;28;20605;-83
2021/09/16 06:00:33;;;;;;;270.60;252.63;;;16.20;99.90;;;;;;5077330;28;20962;-83
2021/09/16 06:02:58;;;;;;;279.87;260.93;;;16.20;99.90;;;;;;5076466;28;20412;-83
2021/09/16 06:05:24;;;;;;;344.07;322.57;;;16.20;99.90;;;;;;5077557;28;20927;-83
2021/09/16 06:07:50;;;;;;;319.93;299.37;;;16.20;99.90;;;;;;5077376;28;20543;-83
2021/09/16 06:10:15;;;;;;;302.30;282.27;;;16.30;99.90;;;;;;5077349;28;20170;-83
2021/09/16 06:12:41;;;;;;;331.63;309.63;;;16.30;99.90;;;;;;5077078;28;20177;-83
2021/09/16 06:15:08;;;;;;;335.07;314.03;;;16.40;99.90;;;;;;5077058;28;20585;-83
2021/09/16 06:17:34;;;;;;;314.17;294.33;;;16.50;99.90;;;;;;5077262;28;20196;-83
2021/09/16 06:20:00;;;;;;;324.20;302.93;;;16.50;99.90;;;;;;5077347;28;20550;-83
2021/09/16 06:22:26;;;;;;;285.00;266.53;;;16.60;99.90;;;;;;5076164;28;20412;-83
2021/09/16 06:24:54;;;;;;;335.03;312.97;;;16.50;99.90;;;;;;5077102;28;20173;-83
2021/09/16 06:27:20;;;;;;;369.83;346.87;;;16.50;99.90;;;;;;5077545;28;20189;-84
2021/09/16 06:29:46;;;;;;;399.23;373.73;;;16.40;99.90;;;;;;5075957;28;20910;-84
2021/09/16 06:32:12;;;;;;;383.50;358.60;;;16.50;99.90;;;;;;5075555;28;20680;-85
2021/09/16 06:34:37;;;;;;;389.60;364.47;;;16.50;99.90;;;;;;5077248;28;20404;-84
2021/09/16 06:37:03;;;;;;;374.23;351.03;;;16.60;99.90;;;;;;5077177;28;20312;-84
2021/09/16 06:39:29;;;;;;;354.40;330.63;;;16.70;99.90;;;;;;5075631;28;20200;-85
2021/09/16 06:41:55;;;;;;;344.53;322.53;;;16.70;99.90;;;;;;5077566;28;20496;-85
2021/09/16 06:44:21;;;;;;;363.07;339.73;;;16.70;99.90;;;;;;5076388;28;20436;-84
2021/09/16 06:46:47;;;;;;;346.33;324.17;;;16.80;99.90;;;;;;5076921;28;20183;-84
2021/09/16 06:49:12;;;;;;;334.87;314.07;;;16.80;99.90;;;;;;5076241;28;20171;-84
2021/09/16 06:51:38;;;;;;;353.77;331.03;;;16.80;99.90;;;;;;5076668;28;20170;-84
2021/09/16 06:54:03;;;;;;;433.03;405.23;;;16.60;99.90;;;;;;5077506;28;20185;-84
2021/09/16 06:56:29;;;;;;;424.40;397.80;;;16.60;99.90;;;;;;5077859;28;20268;-84
2021/09/16 06:58:55;;;;;;;441.83;414.87;;;16.70;99.90;;;;;;5076868;28;20675;-84
2021/09/16 07:01:20;;;;;;;442.73;412.83;;;16.80;99.90;;;;;;5076725;28;20158;-85
2021/09/16 07:03:47;;;;;;;437.23;410.10;;;16.70;99.90;;;;;;5076597;28;20581;-84
2021/09/16 07:06:13;;;;;;;390.37;365.90;;;16.70;99.90;;;;;;5077441;28;20250;-84
2021/09/16 07:08:39;;;;;;;355.63;332.87;;;16.80;99.90;;;;;;5077167;28;20409;-84
2021/09/16 07:11:05;;;;;;;387.10;361.57;;;16.80;99.90;;;;;;5075612;28;20795;-84
2021/09/16 07:13:33;;;;;;;432.80;405.30;;;16.70;99.90;;;;;;5076948;28;20210;-84
2021/09/16 07:15:59;;;;;;;395.93;370.27;;;16.80;99.90;;;;;;5077033;28;20167;-84
2021/09/16 07:18:25;;;;;;;383.87;360.50;;;16.80;99.90;;;;;;5076741;28;20791;-85
2021/09/16 07:20:50;;;;;;;353.20;330.43;;;16.80;99.90;;;;;;5076506;28;20641;-84
2021/09/16 07:23:16;;;;;;;387.63;363.37;;;16.70;99.90;;;;;;5080864;28;20168;-84
2021/09/16 07:25:42;;;;;;;364.80;341.20;;;16.70;99.90;;;;;;5081068;28;20191;-84
2021/09/16 07:28:07;;;;;;;403.87;378.57;;;16.70;99.90;;;;;;5079424;28;20190;-82
2021/09/16 07:30:33;;;;;;;422.40;395.87;;;16.70;99.90;;;;;;5081248;28;20176;-82
2021/09/16 07:32:59;;;;;;;448.43;419.70;;;16.70;99.90;;;;;;5081393;28;20630;-84
2021/09/16 07:35:24;;;;;;;456.63;426.93;;;16.70;99.90;;;;;;5078211;28;20224;-82
2021/09/16 07:37:50;;;;;;;485.47;453.97;;;16.70;99.90;;;;;;5079510;28;20185;-82
2021/09/16 07:40:16;;;;;;;442.90;413.63;;;16.70;99.90;;;;;;5081113;28;20193;-85
2021/09/16 07:42:42;;;;;;;533.83;499.17;;;16.70;99.90;;;;;;5080909;28;20155;-84
2021/09/16 07:45:08;;;;;;;526.60;492.93;;;16.70;99.90;;;;;;5079981;28;20170;-83
2021/09/16 07:47:33;;;;;;;496.63;464.53;;;16.80;99.90;;;;;;5077942;28;20428;-83
2021/09/16 07:49:59;;;;;;;582.97;544.87;;;16.80;99.90;;;;;;5078641;28;20442;-82
2021/09/16 07:54:57;;;;;;;450.87;422.17;;;17.00;99.90;;;;;;5018307;28;20215;-83
2021/09/16 07:57:23;;;;;;;497.83;465.50;;;16.90;99.90;;;;;;5019086;28;20415;-83
2021/09/16 07:59:49;;;;;;;502.77;470.63;;;17.00;99.90;;;;;;5019188;28;20196;-83
2021/09/16 08:02:14;;;;;;;480.00;448.50;;;17.10;99.90;;;;;;5019136;28;20173;-83
2021/09/16 08:04:40;;;;;;;475.87;444.47;;;17.10;99.90;;;;;;5002030;28;20179;-84
2021/09/16 08:07:06;;;;;;;435.93;407.80;;;17.20;99.90;;;;;;5019242;28;20213;-84
2021/09/16 08:09:32;;;;;;;477.40;446.20;;;17.30;99.90;;;;;;5019327;28;20634;-84
2021/09/16 08:11:58;;;;;;;465.57;435.60;;;17.30;99.90;;;;;;5001702;28;20252;-83
2021/09/16 08:14:23;;;;;;;432.83;404.40;;;17.40;99.90;;;;;;5018707;28;20438;-83
2021/09/16 08:16:49;;;;;;;459.57;430.50;;;17.30;99.90;;;;;;5018313;28;20190;-83
2021/09/16 08:19:15;;;;;;;453.73;425.07;;;17.40;99.90;;;;;;5019110;28;20186;-83
2021/09/16 08:21:41;;;;;;;454.37;425.37;;;17.40;99.90;;;;;;5019416;28;20911;-84
2021/09/16 08:24:10;;;;;;;466.53;436.67;;;17.50;99.90;;;;;;5001861;28;20270;-84
2021/09/16 08:26:35;;;;;;;456.10;427.70;;;17.60;99.90;;;;;;5020635;28;20499;-83
2021/09/16 08:29:01;;;;;;;462.27;433.10;;;17.70;99.90;;;;;;5019251;28;20749;-84
2021/09/16 08:31:27;;;;;;;421.80;395.53;;;17.80;99.90;;;;;;5003305;28;20506;-84
2021/09/16 08:33:53;;;;;;;381.67;357.87;;;17.80;99.90;;;;;;5020203;28;20412;-84
2021/09/16 08:36:19;;;;;;;244.27;226.73;;;17.90;99.90;;;;;;5002661;28;20196;-84
2021/09/16 08:38:45;;;;;;;210.57;195.43;;;17.90;99.90;;;;;;5019007;28;20444;-84
2021/09/16 08:41:11;;;;;;;240.87;223.63;;;17.90;99.90;;;;;;5020894;28;20412;-83
2021/09/16 08:43:39;;;;;;;245.77;229.80;;;17.90;99.90;;;;;;5018979;28;20406;-83
2021/09/16 08:46:05;;;;;;;190.43;176.13;;;18.10;99.90;;;;;;5017562;28;20416;-82
2021/09/16 08:48:31;;;;;;;213.40;197.63;;;18.10;99.90;;;;;;5017636;28;20489;-83
2021/09/16 08:50:57;;;;;;;200.67;186.27;;;18.10;99.90;;;;;;5017998;28;20890;-82
2021/09/16 08:53:32;;;;;;;218.63;203.53;;;18.10;99.90;;;;;;5016755;28;20450;-83
2021/09/16 08:56:00;;;;;;;194.20;179.80;;;18.20;99.90;;;;;;5016888;28;20761;-83
2021/09/16 08:58:29;;;;;;;227.47;211.63;;;18.20;99.90;;;;;;5017282;28;20405;-83
2021/09/16 09:00:55;;;;;;;198.60;184.37;;;18.30;99.90;;;;;;4999874;28;20413;-83
2021/09/16 09:03:21;;;;;;;247.73;231.10;;;18.30;99.90;;;;;;5017559;28;20397;-83
2021/09/16 09:05:47;;;;;;;230.53;214.97;;;18.50;99.90;;;;;;5016825;28;20440;-83
2021/09/16 09:08:20;;;;;;;320.17;300.87;;;18.60;99.90;;;;;;4999763;28;20480;-84
2021/09/16 09:10:49;;;;;;;377.43;356.00;;;18.80;99.90;;;;;;4999744;28;20917;-83
2021/09/16 09:13:19;;;;;;;392.67;370.63;;;18.80;99.90;;;;;;5017182;28;20768;-84
2021/09/16 09:15:46;;;;;;;417.23;394.37;;;18.90;99.90;;;;;;5017767;28;20910;-83
2021/09/16 09:18:11;;;;;;;413.30;391.00;;;18.80;99.90;;;;;;5016452;28;20417;-84
2021/09/16 09:20:52;;;;;;;358.77;338.40;;;18.80;99.90;;;;;;5016695;28;20977;-84
2021/09/16 09:23:32;;;;;;;398.87;377.07;;;18.80;99.90;;;;;;5017977;28;20159;-84
2021/09/16 09:25:59;;;;;;;254.00;237.70;;;18.80;99.90;;;;;;5017981;28;20395;-84
2021/09/16 09:28:31;;;;;;;221.80;206.07;;;18.90;99.90;;;;;;4999110;28;20464;-83
2021/09/16 09:30:57;;;;;;;90.67;56.70;;;18.90;99.90;;;;;;5016683;28;20388;-83
2021/09/16 09:33:32;;;;;;;73.17;22.90;;;18.90;99.90;;;;;;5016558;28;20409;-84
2021/09/16 09:36:18;;;;;;;74.13;20.67;;;18.80;99.90;;;;;;5016146;28;20423;-83
2021/09/16 09:38:59;;;;;;;78.80;36.10;;;18.90;99.90;;;;;;5017112;28;20796;-84
2021/09/16 09:41:34;;;;;;;81.63;40.87;;;19.00;99.90;;;;;;5016742;28;20385;-83
2021/09/16 09:44:11;;;;;;;76.37;31.47;;;19.10;99.90;;;;;;5015897;28;20403;-83
2021/09/16 09:46:41;;;;;;;72.00;19.50;;;19.20;99.90;;;;;;5016674;28;20446;-82
2021/09/16 09:49:10;;;;;;;75.70;22.93;;;19.40;99.90;;;;;;4998824;28;20420;-83
2021/09/16 09:51:38;;;;;;;80.63;37.73;;;19.50;99.90;;;;;;4998991;28;20410;-83
2021/09/16 09:54:35;;;;;;;79.87;40.47;;;19.60;99.90;;;;;;4998265;28;20428;-84
2021/09/16 09:57:10;;;;;;;80.50;41.13;;;19.60;99.90;;;;;;4983067;28;20926;-83
2021/09/16 10:00:04;;;;;;;82.53;46.83;;;19.70;99.90;;;;;;5016289;28;20449;-83
2021/09/16 10:02:44;;;;;;;90.00;70.17;;;19.60;99.90;;;;;;5016361;28;20394;-83
2021/09/16 10:05:36;;;;;;;87.27;64.17;;;19.60;99.90;;;;;;5015733;28;20462;-83
2021/09/16 10:08:08;;;;;;;115.83;104.37;;;19.80;99.90;;;;;;5016662;28;20561;-83
2021/09/16 10:10:43;;;;;;;92.53;73.47;;;19.90;99.90;;;;;;4999033;28;20409;-84
2021/09/16 10:13:17;;;;;;;139.57;127.37;;;20.00;99.90;;;;;;5016146;28;20718;-83
2021/09/16 10:15:44;;;;;;;118.57;107.00;;;20.30;99.90;;;;;;5015837;28;20435;-84
2021/09/16 10:18:09;;;;;;;95.10;55.00;;;20.40;99.90;;;;;;5015822;28;20426;-83
2021/09/16 10:20:35;;;;;;;82.13;50.10;;;20.50;99.90;;;;;;5016365;28;20800;-84
2021/09/16 10:23:06;;;;;;;81.30;38.20;;;20.60;99.90;;;;;;5015779;28;20202;-84
2021/09/16 10:25:32;;;;;;;80.80;42.03;;;20.60;99.90;;;;;;5015891;28;20152;-83
2021/09/16 10:28:06;;;;;;;77.10;35.47;;;20.70;99.90;;;;;;5015241;28;20917;-83
2021/09/16 10:30:40;;;;;;;80.67;45.10;;;20.70;98.40;;;;;;4997903;28;20425;-83
2021/09/16 10:33:16;;;;;;;77.83;38.40;;;20.60;98.20;;;;;;4997674;28;20497;-82
2021/09/16 10:36:08;;;;;;;79.00;38.40;;;20.30;99.10;;;;;;4997727;28;20971;-82
2021/09/16 10:38:37;;;;;;;115.60;103.90;;;20.20;99.90;;;;;;5011821;28;20955;-83
2021/09/16 10:41:21;;;;;;;146.23;133.30;;;20.20;98.80;;;;;;5014873;28;20417;-83
2021/09/16 10:43:58;;;;;;;83.47;50.33;;;20.40;96.20;;;;;;5014738;28;20738;-83
2021/09/16 10:46:38;;;;;;;183.37;169.27;;;20.50;98.10;;;;;;4997276;28;20427;-83
2021/09/16 10:49:22;;;;;;;133.97;122.03;;;20.70;97.10;;;;;;5015070;28;20464;-84
2021/09/16 10:51:50;;;;;;;125.70;114.10;;;21.00;83.50;;;;;;5015186;28;20400;-83
2021/09/16 10:54:27;;;;;;;105.30;94.20;;;21.10;88.30;;;;;;5014822;28;20429;-83
2021/09/16 10:57:03;;;;;;;117.30;105.77;;;21.10;88.70;;;;;;5014410;28;20527;-83
2021/09/16 10:59:47;;;;;;;143.27;130.30;;;20.90;92.70;;;;;;5015049;28;20967;-83
2021/09/16 11:02:16;;;;;;;96.37;72.77;;;20.70;93.60;;;;;;4997206;28;20504;-84
2021/09/16 11:04:59;;;;;;;80.93;44.17;;;20.50;99.10;;;;;;5015633;28;20421;-83
2021/09/16 11:07:34;;;;;;;167.37;154.17;;;20.60;99.70;;;;;;5015527;28;20935;-83
2021/09/16 11:10:29;;;;;;;136.07;124.03;;;20.80;97.00;;;;;;5015580;28;20397;-84
2021/09/16 11:13:06;;;;;;;131.63;119.67;;;21.10;98.10;;;;;;4997649;28;20755;-84
2021/09/16 11:15:38;;;;;;;117.40;105.90;;;21.60;97.60;;;;;;5015707;28;20387;-84
2021/09/16 11:18:15;;;;;;;124.97;113.23;;;21.90;92.20;;;;;;5015675;28;20451;-84
2021/09/16 11:20:45;;;;;;;113.07;101.87;;;22.00;89.50;;;;;;5016060;28;20488;-83
2021/09/16 11:23:11;;;;;;;148.70;136.27;;;21.80;87.90;;;;;;5017418;28;20419;-85
2021/09/16 11:25:46;;;;;;;107.20;95.90;;;21.60;88.00;;;;;;5019125;28;20401;-85
2021/09/16 11:28:13;;;;;;;112.07;100.80;;;21.40;91.80;;;;;;5018208;28;20408;-84
2021/09/16 11:30:42;;;;;;;117.67;106.37;;;21.30;92.80;;;;;;5019839;28;20406;-85
2021/09/16 11:33:16;;;;;;;139.03;127.07;;;21.20;89.80;;;;;;5018432;28;20387;-84
2021/09/16 11:35:42;;;;;;;129.43;117.63;;;21.10;92.00;;;;;;5018817;28;20387;-84
2021/09/16 11:38:08;;;;;;;122.73;111.13;;;21.30;91.50;;;;;;5000622;28;20473;-85
2021/09/16 11:40:37;;;;;;;151.43;138.77;;;21.60;92.80;;;;;;5019314;28;20452;-85
2021/09/16 11:43:05;;;;;;;112.30;100.53;;;21.70;88.30;;;;;;5019329;28;20494;-84
2021/09/16 11:45:37;;;;;;;129.37;116.87;;;21.80;81.90;;;;;;5018209;28;20427;-84
2021/09/16 11:48:16;;;;;;;116.77;104.50;;;21.80;86.70;;;;;;5000611;28;20943;-84
2021/09/16 11:50:43;;;;;;;147.93;134.90;;;21.60;86.70;;;;;;5000865;28;20430;-84
2021/09/16 11:53:14;;;;;;;106.67;95.70;;;21.30;82.50;;;;;;5000480;28;20470;-84
2021/09/16 11:55:46;;;;;;;131.17;119.33;;;21.10;89.80;;;;;;5017943;28;20830;-84
2021/09/16 11:58:20;;;;;;;129.17;117.27;;;21.00;93.40;;;;;;5000159;28;20443;-85
2021/09/16 12:00:57;;;;;;;142.00;129.60;;;20.90;93.60;;;;;;5017291;28;20907;-84
2021/09/16 12:03:26;;;;;;;98.47;87.80;;;20.80;93.50;;;;;;4999196;28;20403;-84
2021/09/16 12:06:02;;;;;;;118.27;106.67;;;20.70;95.20;;;;;;5017257;28;20443;-83
2021/09/16 12:08:30;;;;;;;125.23;113.50;;;20.50;97.20;;;;;;5001702;28;20488;-84
2021/09/16 12:11:00;;;;;;;170.43;156.93;;;20.40;99.90;;;;;;5019005;28;20425;-83
2021/09/16 12:13:32;;;;;;;170.33;157.00;;;20.50;98.90;;;;;;5002157;28;20417;-85
2021/09/16 12:16:05;;;;;;;115.33;104.03;;;20.60;98.40;;;;;;5020122;28;20386;-85
2021/09/16 12:18:34;;;;;;;130.10;118.20;;;20.70;97.80;;;;;;5020083;28;20940;-85
2021/09/16 12:21:04;;;;;;;93.27;77.73;;;20.70;96.10;;;;;;5019545;28;20412;-84
2021/09/16 12:23:30;;;;;;;130.70;118.43;;;20.70;95.80;;;;;;5020433;28;20392;-84
2021/09/16 12:25:56;;;;;;;102.20;91.20;;;20.70;96.10;;;;;;5002335;28;20501;-85
2021/09/16 12:28:23;;;;;;;152.27;139.57;;;20.80;95.50;;;;;;5002226;28;20451;-84
2021/09/16 12:30:49;;;;;;;162.63;149.47;;;21.00;96.90;;;;;;5019379;28;20172;-84